createdAt,value
2022-10-04T00:01:49.526Z,28.47
2022-10-04T00:04:23.462Z,30.43
2022-10-04T00:06:58.252Z,29.27
2022-10-04T00:09:31.829Z,11.00
2022-10-04T00:12:02.586Z,14.40
2022-10-04T00:14:34.136Z,17.23
2022-10-04T00:17:11.740Z,9.73
2022-10-04T00:19:43.659Z,12.23
2022-10-04T00:22:21.068Z,12.60
2022-10-04T00:25:18.531Z,11.97
2022-10-04T00:28:28.533Z,11.57
2022-10-04T00:31:18.901Z,12.83
2022-10-04T00:33:48.418Z,10.57
2022-10-04T00:36:46.883Z,11.10
2022-10-04T00:39:27.456Z,11.60
2022-10-04T00:42:04.424Z,15.30
2022-10-04T00:44:40.022Z,13.47
2022-10-04T00:47:20.714Z,17.03
2022-10-04T00:49:52.381Z,21.47
2022-10-04T00:52:23.970Z,27.90
2022-10-04T00:54:54.048Z,25.17
2022-10-04T00:57:25.340Z,21.50
2022-10-04T00:59:57.345Z,20.30
2022-10-04T01:02:31.865Z,20.00
2022-10-04T01:05:03.861Z,18.83
2022-10-04T01:07:38.072Z,17.07
2022-10-04T01:10:10.157Z,18.30
2022-10-04T01:12:45.268Z,12.73
2022-10-04T01:15:23.525Z,17.50
2022-10-04T01:18:09.553Z,18.80
2022-10-04T01:20:41.039Z,15.27
2022-10-04T01:23:12.307Z,12.30
2022-10-04T01:25:52.691Z,9.43
2022-10-04T01:28:20.833Z,19.00
2022-10-04T01:30:49.361Z,10.50
2022-10-04T01:33:17.303Z,27.70
2022-10-04T01:35:45.736Z,12.03
2022-10-04T01:38:15.243Z,13.47
2022-10-04T01:40:49.502Z,12.60
2022-10-04T01:43:24.869Z,17.20
2022-10-04T01:45:56.433Z,22.40
2022-10-04T01:48:28.990Z,18.77
2022-10-04T01:51:01.383Z,29.80
2022-10-04T01:53:32.366Z,33.97
2022-10-04T01:56:09.180Z,42.53
2022-10-04T01:58:44.109Z,48.33
2022-10-04T02:01:16.142Z,39.30
2022-10-04T02:03:48.779Z,13.03
2022-10-04T02:06:17.558Z,10.03
2022-10-04T02:08:51.625Z,17.97
2022-10-04T02:11:21.863Z,15.10
2022-10-04T02:13:53.668Z,9.40
2022-10-04T02:16:24.466Z,7.97
2022-10-04T02:18:53.816Z,8.90
2022-10-04T02:21:23.856Z,9.20
2022-10-04T02:23:54.422Z,8.00
2022-10-04T02:26:22.474Z,32.03
2022-10-04T02:28:50.641Z,21.07
2022-10-04T02:31:40.067Z,28.73
2022-10-04T02:34:08.670Z,20.57
2022-10-04T02:36:37.779Z,18.93
2022-10-04T02:39:11.679Z,18.10
2022-10-04T02:41:44.604Z,13.67
2022-10-04T02:44:17.121Z,15.27
2022-10-04T02:46:51.411Z,15.77
2022-10-04T02:49:27.586Z,15.33
2022-10-04T02:52:02.708Z,22.03
2022-10-04T02:54:37.751Z,13.03
2022-10-04T02:57:06.024Z,17.40
2022-10-04T02:59:35.616Z,25.90
2022-10-04T03:02:28.750Z,16.37
2022-10-04T03:05:02.430Z,11.80
2022-10-04T03:07:33.560Z,62.47
2022-10-04T03:10:08.141Z,42.37
2022-10-04T03:12:38.847Z,19.70
2022-10-04T03:15:08.966Z,20.53
2022-10-04T03:17:37.010Z,22.17
2022-10-04T03:20:06.764Z,22.17
2022-10-04T03:22:34.793Z,39.70
2022-10-04T03:25:04.282Z,23.17
2022-10-04T03:27:35.807Z,17.13
2022-10-04T03:30:03.872Z,12.50
2022-10-04T03:32:32.379Z,14.17
2022-10-04T03:35:03.751Z,10.90
2022-10-04T03:37:35.688Z,11.80
2022-10-04T03:40:09.539Z,9.07
2022-10-04T03:42:38.896Z,10.00
2022-10-04T03:45:12.325Z,11.30
2022-10-04T03:47:42.497Z,11.93
2022-10-04T03:50:17.595Z,9.93
2022-10-04T03:52:51.027Z,8.17
2022-10-04T03:55:21.543Z,14.03
2022-10-04T03:57:49.578Z,18.40
2022-10-04T04:00:19.295Z,20.77
2022-10-04T04:02:52.108Z,26.20
2022-10-04T04:05:24.448Z,21.17
2022-10-04T04:08:00.646Z,18.37
2022-10-04T04:10:32.531Z,24.00
2022-10-04T04:13:04.875Z,11.33
2022-10-04T04:15:34.527Z,14.40
2022-10-04T04:18:06.123Z,9.20
2022-10-04T04:20:36.123Z,16.63
2022-10-04T04:23:13.502Z,10.20
2022-10-04T04:25:45.949Z,18.17
2022-10-04T04:28:22.646Z,10.63
2022-10-04T04:30:54.443Z,7.67
2022-10-04T04:33:29.867Z,6.60
2022-10-04T04:36:05.231Z,6.50
2022-10-04T04:38:35.216Z,5.50
2022-10-04T04:41:11.204Z,7.40
2022-10-04T04:43:44.915Z,14.23
2022-10-04T04:46:27.198Z,31.33
2022-10-04T04:49:02.412Z,7.73
2022-10-04T04:51:32.911Z,40.70
2022-10-04T04:54:03.423Z,52.27
2022-10-04T04:56:33.559Z,37.63
2022-10-04T04:59:05.795Z,36.40
2022-10-04T05:01:36.276Z,18.87
2022-10-04T05:04:06.538Z,21.27
2022-10-04T05:06:36.361Z,22.73
2022-10-04T05:09:05.302Z,23.70
2022-10-04T05:11:39.637Z,13.83
2022-10-04T05:14:10.354Z,10.80
2022-10-04T05:16:42.925Z,9.23
2022-10-04T05:19:17.193Z,16.17
2022-10-04T05:21:47.784Z,13.13
2022-10-04T05:24:22.434Z,31.13
2022-10-04T05:26:58.600Z,19.73
2022-10-04T05:29:29.124Z,9.03
2022-10-04T05:32:06.143Z,9.10
2022-10-04T05:34:40.416Z,9.13
2022-10-04T05:37:29.553Z,8.10
2022-10-04T05:40:06.542Z,7.50
2022-10-04T05:42:41.473Z,7.50
2022-10-04T05:45:19.604Z,6.80
2022-10-04T05:47:50.188Z,7.15
2022-10-04T05:50:21.838Z,7.80
2022-10-04T05:52:52.186Z,6.20
2022-10-04T05:55:28.631Z,9.03
2022-10-04T05:58:26.712Z,7.03
2022-10-04T06:01:16.691Z,6.70
2022-10-04T06:04:02.487Z,9.40
2022-10-04T06:06:39.367Z,6.23
2022-10-04T06:09:14.463Z,12.53
2022-10-04T06:11:54.242Z,21.50
2022-10-04T06:15:06.496Z,16.73
2022-10-04T06:18:06.803Z,32.27
2022-10-04T06:20:54.820Z,9.85
2022-10-04T06:23:25.384Z,9.17
2022-10-04T06:25:57.928Z,9.53
2022-10-04T06:28:32.651Z,8.80
2022-10-04T06:31:32.576Z,15.17
2022-10-04T06:34:28.460Z,30.83
2022-10-04T06:37:13.591Z,14.67
2022-10-04T06:40:13.444Z,25.10
2022-10-04T06:42:56.581Z,103.05
2022-10-04T06:45:38.352Z,35.97
2022-10-04T06:48:33.781Z,21.60
2022-10-04T06:51:14.076Z,14.10
2022-10-04T06:53:53.614Z,13.00
2022-10-04T06:56:39.136Z,29.57
2022-10-04T06:59:39.120Z,18.43
2022-10-04T07:02:13.876Z,11.23
2022-10-04T07:05:07.457Z,37.33
2022-10-04T07:07:39.615Z,23.47
2022-10-04T07:10:25.155Z,19.83
2022-10-04T07:13:00.797Z,13.80
2022-10-04T07:15:34.883Z,7.77
2022-10-04T07:18:09.781Z,54.83
2022-10-04T07:20:39.340Z,22.87
2022-10-04T07:23:14.210Z,11.30
2022-10-04T07:25:47.766Z,13.20
2022-10-04T07:28:38.169Z,7.47
2022-10-04T07:31:12.791Z,9.83
2022-10-04T07:33:45.754Z,10.07
2022-10-04T07:36:21.990Z,15.57
2022-10-04T07:38:54.158Z,11.00
2022-10-04T07:41:27.770Z,7.67
2022-10-04T07:44:00.965Z,7.80
2022-10-04T07:46:44.361Z,8.20
2022-10-04T07:49:17.143Z,8.07
2022-10-04T07:52:09.205Z,7.47
2022-10-04T07:54:41.784Z,7.47
2022-10-04T07:57:18.863Z,7.77
2022-10-04T07:59:54.418Z,8.60
2022-10-04T08:02:31.410Z,15.23
2022-10-04T08:05:10.981Z,10.57
2022-10-04T08:07:51.098Z,12.90
2022-10-04T08:10:27.306Z,19.83
2022-10-04T08:13:05.867Z,18.30
2022-10-04T08:15:38.698Z,8.27
2022-10-04T08:18:19.413Z,12.20
2022-10-04T08:20:51.292Z,10.57
2022-10-04T08:23:40.635Z,14.20
2022-10-04T08:26:40.905Z,15.97
2022-10-04T08:29:47.709Z,12.03
2022-10-04T08:32:27.495Z,13.13
2022-10-04T08:35:12.928Z,35.43
2022-10-04T08:37:53.618Z,10.10
2022-10-04T08:41:02.500Z,9.27
2022-10-04T08:43:56.070Z,10.37
2022-10-04T08:46:55.594Z,9.77
2022-10-04T08:49:41.581Z,9.87
2022-10-04T08:52:30.063Z,14.47
2022-10-04T08:55:35.000Z,13.57
2022-10-04T08:58:13.908Z,12.33
2022-10-04T09:01:12.206Z,11.03
2022-10-04T09:04:16.985Z,10.77
2022-10-04T09:07:02.076Z,13.70
2022-10-04T09:09:58.093Z,13.43
2022-10-04T09:12:53.681Z,17.43
2022-10-04T09:15:39.415Z,10.33
2022-10-04T09:18:23.276Z,14.97
2022-10-04T09:20:59.097Z,15.40
2022-10-04T09:23:49.676Z,12.70
2022-10-04T09:26:23.749Z,12.17
2022-10-04T09:29:27.154Z,14.30
2022-10-04T09:32:34.586Z,14.13
2022-10-04T09:35:29.190Z,13.63
2022-10-04T09:38:20.134Z,17.53
2022-10-04T09:41:06.481Z,15.47
2022-10-04T09:44:17.478Z,13.33
2022-10-04T09:47:25.262Z,18.57
2022-10-04T09:50:31.891Z,12.77
2022-10-04T09:53:14.662Z,11.10
2022-10-04T09:55:55.325Z,15.07
2022-10-04T09:58:48.931Z,11.10
2022-10-04T10:01:24.722Z,10.40
2022-10-04T10:04:08.403Z,11.00
2022-10-04T10:06:56.262Z,12.97
2022-10-04T10:09:46.389Z,9.40
2022-10-04T10:12:47.170Z,8.37
2022-10-04T10:15:24.833Z,8.73
2022-10-04T10:18:01.229Z,6.73
2022-10-04T10:20:40.496Z,6.97
2022-10-04T10:23:53.478Z,12.20
2022-10-04T10:26:50.861Z,11.97
2022-10-04T10:29:54.481Z,11.33
2022-10-04T10:33:12.661Z,8.30
2022-10-04T10:35:54.209Z,6.93
2022-10-04T10:38:33.381Z,11.87
2022-10-04T10:41:38.300Z,10.10
2022-10-04T10:44:26.745Z,13.80
2022-10-04T10:47:06.604Z,7.70
2022-10-04T10:49:56.730Z,11.37
2022-10-04T10:52:59.300Z,11.07
2022-10-04T10:55:36.087Z,6.53
2022-10-04T10:58:40.502Z,8.93
2022-10-04T11:01:30.053Z,8.07
2022-10-04T11:04:35.661Z,8.30
2022-10-04T11:07:44.099Z,6.43
2022-10-04T11:10:34.037Z,8.47
2022-10-04T11:13:34.707Z,11.53
2022-10-04T11:16:39.283Z,7.37
2022-10-04T11:19:50.267Z,6.80
2022-10-04T11:22:57.503Z,7.03
2022-10-04T11:25:45.323Z,6.70
2022-10-04T11:28:18.331Z,9.07
2022-10-04T11:31:43.753Z,12.63
2022-10-04T11:34:48.516Z,10.50
2022-10-04T11:37:22.870Z,9.03
2022-10-04T11:40:05.595Z,11.03
2022-10-04T11:42:54.649Z,9.70
2022-10-04T11:45:55.790Z,14.20
2022-10-04T11:48:38.349Z,10.93
2022-10-04T11:51:37.893Z,11.83
2022-10-04T11:54:47.926Z,7.47
2022-10-04T11:57:27.392Z,7.90
2022-10-04T12:00:03.495Z,11.20
2022-10-04T12:03:16.006Z,7.90
2022-10-04T12:06:03.899Z,12.67
2022-10-04T12:08:42.377Z,6.33
2022-10-04T12:11:53.475Z,12.37
2022-10-04T12:14:38.755Z,9.80
2022-10-04T12:18:05.254Z,6.53
2022-10-04T12:20:56.875Z,7.40
2022-10-04T12:23:50.335Z,8.23
2022-10-04T12:26:48.569Z,6.20
2022-10-04T12:30:02.089Z,6.40
2022-10-04T12:32:35.347Z,7.20
2022-10-04T12:35:17.902Z,5.93
2022-10-04T12:38:16.810Z,7.53
2022-10-04T12:40:52.880Z,11.23
2022-10-04T12:43:30.452Z,8.17
2022-10-04T12:46:14.495Z,7.40
2022-10-04T12:49:03.730Z,7.03
2022-10-04T12:51:53.831Z,6.57
2022-10-04T12:54:39.165Z,9.63
2022-10-04T12:57:26.067Z,5.23
2022-10-04T13:00:04.657Z,6.43
2022-10-04T13:02:45.749Z,7.50
2022-10-04T13:05:22.366Z,5.43
2022-10-04T13:08:21.157Z,7.70
2022-10-04T13:11:11.031Z,5.93
2022-10-04T13:14:06.798Z,13.70
2022-10-04T13:19:42.609Z,5.97
2022-10-04T13:23:02.039Z,6.40
2022-10-04T13:26:06.258Z,6.20
2022-10-04T13:28:44.170Z,5.33
2022-10-04T13:31:23.823Z,6.50
2022-10-04T13:34:01.122Z,9.02
2022-10-04T13:36:43.290Z,12.70
2022-10-04T13:39:27.156Z,7.80
2022-10-04T13:42:12.923Z,7.97
2022-10-04T13:45:01.415Z,9.73
2022-10-04T13:47:52.440Z,6.60
2022-10-04T13:50:50.261Z,9.00
2022-10-04T13:53:51.822Z,5.87
2022-10-04T13:56:50.655Z,7.47
2022-10-04T13:59:33.653Z,8.30
2022-10-04T14:02:56.835Z,7.50
2022-10-04T14:06:07.026Z,14.00
2022-10-04T14:09:19.947Z,116.77
2022-10-04T14:12:26.504Z,52.83
2022-10-04T14:15:42.340Z,15.20
2022-10-04T14:18:46.580Z,7.40
2022-10-04T14:21:55.318Z,7.33
2022-10-04T14:24:56.895Z,8.20
2022-10-04T14:27:55.337Z,5.27
2022-10-04T14:30:25.649Z,7.33
2022-10-04T14:33:27.144Z,5.80
2022-10-04T14:36:24.659Z,8.13
2022-10-04T14:39:24.191Z,8.03
2022-10-04T14:42:32.793Z,10.43
2022-10-04T14:45:15.394Z,5.93
2022-10-04T14:48:10.774Z,8.47
2022-10-04T14:50:50.611Z,6.10
2022-10-04T14:53:27.579Z,5.37
2022-10-04T14:56:30.388Z,6.77
2022-10-04T14:59:16.797Z,5.30
2022-10-04T15:02:07.540Z,6.63
2022-10-04T15:04:58.209Z,5.10
2022-10-04T15:07:33.073Z,8.20
2022-10-04T15:10:11.598Z,7.93
2022-10-04T15:13:10.911Z,5.30
2022-10-04T15:16:15.118Z,8.77
2022-10-04T15:18:54.522Z,9.43
2022-10-04T15:21:47.759Z,4.47
2022-10-04T15:24:27.954Z,8.37
2022-10-04T15:27:39.142Z,6.00
2022-10-04T15:30:22.272Z,6.37
2022-10-04T15:33:01.348Z,8.20
2022-10-04T15:35:39.055Z,7.80
2022-10-04T15:38:20.699Z,9.53
2022-10-04T15:41:01.908Z,6.10
2022-10-04T15:43:34.800Z,7.60
2022-10-04T15:46:41.346Z,6.73
2022-10-04T15:49:25.569Z,6.63
2022-10-04T15:52:11.663Z,7.53
2022-10-04T15:54:52.267Z,5.50
2022-10-04T15:57:31.368Z,6.50
2022-10-04T16:00:08.800Z,5.47
2022-10-04T16:03:13.788Z,5.33
2022-10-04T16:05:47.136Z,6.30
2022-10-04T16:08:48.827Z,4.50
2022-10-04T16:11:56.090Z,6.13
2022-10-04T16:17:44.328Z,5.47
2022-10-04T16:20:54.566Z,17.43
2022-10-04T16:23:31.660Z,21.47
2022-10-04T16:26:10.623Z,18.10
2022-10-04T16:29:14.757Z,11.93
2022-10-04T16:31:56.100Z,9.13
2022-10-04T16:38:05.302Z,8.93
2022-10-04T16:40:38.895Z,10.20
2022-10-04T16:43:46.290Z,12.43
2022-10-04T16:46:53.367Z,11.47
2022-10-04T16:49:28.266Z,14.30
2022-10-04T16:52:18.265Z,10.57
2022-10-04T16:55:20.028Z,11.43
2022-10-04T16:58:21.490Z,16.50
2022-10-04T17:00:50.252Z,22.60
2022-10-04T17:03:24.394Z,34.80
2022-10-04T17:06:12.940Z,18.67
2022-10-04T17:09:03.967Z,8.13
2022-10-04T17:11:44.276Z,9.03
2022-10-04T17:14:49.260Z,12.97
2022-10-04T17:17:24.202Z,19.00
2022-10-04T17:19:57.387Z,11.00
2022-10-04T17:22:34.887Z,12.43
2022-10-04T17:25:15.999Z,17.27
2022-10-04T17:27:54.091Z,17.80
2022-10-04T17:30:23.948Z,15.23
2022-10-04T17:33:31.305Z,14.97
2022-10-04T17:36:14.314Z,10.27
2022-10-04T17:38:49.023Z,11.50
2022-10-04T17:41:29.524Z,9.83
2022-10-04T17:44:34.178Z,11.87
2022-10-04T17:47:13.443Z,72.90
2022-10-04T17:50:10.524Z,51.50
2022-10-04T17:53:01.991Z,35.10
2022-10-04T17:55:44.008Z,24.63
2022-10-04T17:58:17.331Z,26.70
2022-10-04T18:01:01.633Z,25.40
2022-10-04T18:03:38.342Z,13.67
2022-10-04T18:06:17.480Z,15.70
2022-10-04T18:08:52.935Z,17.10
2022-10-04T18:11:28.384Z,16.13
2022-10-04T18:14:02.440Z,10.53
2022-10-04T18:16:43.822Z,12.87
2022-10-04T18:19:38.805Z,14.90
2022-10-04T18:22:14.877Z,15.80
2022-10-04T18:24:44.755Z,14.73
2022-10-04T18:27:21.171Z,23.43
2022-10-04T18:30:03.167Z,17.03
2022-10-04T18:32:37.988Z,13.67
2022-10-04T18:35:23.031Z,56.80
2022-10-04T18:37:52.601Z,58.40
2022-10-04T18:40:22.629Z,69.20
2022-10-04T18:42:57.026Z,62.93
2022-10-04T18:45:28.362Z,49.47
2022-10-04T18:48:00.365Z,29.30
2022-10-04T18:50:37.705Z,19.50
2022-10-04T18:53:36.618Z,13.03
2022-10-04T18:56:08.386Z,13.80
2022-10-04T18:59:13.130Z,15.57
2022-10-04T19:02:03.347Z,17.57
2022-10-04T19:04:55.517Z,17.80
2022-10-04T19:07:33.206Z,27.47
2022-10-04T19:10:20.031Z,25.27
2022-10-04T19:12:58.125Z,32.17
2022-10-04T19:15:48.861Z,35.03
2022-10-04T19:18:40.167Z,25.10
2022-10-04T19:21:20.208Z,15.07
2022-10-04T19:24:08.391Z,16.23
2022-10-04T19:26:40.530Z,18.20
2022-10-04T19:29:27.448Z,14.33
2022-10-04T19:32:01.143Z,10.67
2022-10-04T19:34:41.876Z,20.20
2022-10-04T19:37:20.744Z,13.50
2022-10-04T19:39:59.041Z,10.47
2022-10-04T19:42:35.192Z,11.13
2022-10-04T19:45:18.345Z,12.23
2022-10-04T19:47:50.462Z,14.53
2022-10-04T19:50:21.552Z,19.37
2022-10-04T19:52:54.379Z,82.40
2022-10-04T19:55:27.434Z,58.70
2022-10-04T19:58:03.430Z,241.50
2022-10-04T20:00:33.034Z,203.03
2022-10-04T20:03:01.046Z,161.10
2022-10-04T20:05:30.207Z,36.87
2022-10-04T20:08:05.025Z,25.00
2022-10-04T20:10:35.720Z,22.33
2022-10-04T20:13:21.476Z,22.27
2022-10-04T20:15:56.414Z,24.77
2022-10-04T20:19:05.139Z,29.70
2022-10-04T20:21:33.473Z,25.23
2022-10-04T20:24:02.892Z,20.13
2022-10-04T20:26:56.328Z,23.10
2022-10-04T20:30:06.466Z,24.87
2022-10-04T20:33:07.225Z,23.20
2022-10-04T20:36:13.098Z,24.63
2022-10-04T20:38:59.372Z,19.07
2022-10-04T20:42:20.315Z,27.47
2022-10-04T20:44:57.059Z,34.17
2022-10-04T20:47:33.033Z,90.23
2022-10-04T20:50:02.339Z,99.53
2022-10-04T20:52:32.565Z,60.33
2022-10-04T20:55:02.908Z,47.70
2022-10-04T20:57:33.160Z,26.67
2022-10-04T21:00:05.689Z,23.97
2022-10-04T21:02:34.406Z,22.83
2022-10-04T21:05:13.595Z,21.77
2022-10-04T21:07:41.979Z,17.50
2022-10-04T21:10:17.931Z,20.93
2022-10-04T21:12:49.207Z,15.20
2022-10-04T21:15:22.823Z,61.67
2022-10-04T21:18:10.915Z,62.53
2022-10-04T21:20:46.866Z,46.73
2022-10-04T21:23:23.337Z,30.27
2022-10-04T21:25:51.827Z,20.40
2022-10-04T21:28:32.895Z,18.13
2022-10-04T21:31:02.100Z,23.93
2022-10-04T21:33:32.264Z,22.43
2022-10-04T21:36:00.509Z,100.63
2022-10-04T21:38:29.544Z,75.63
2022-10-04T21:40:58.043Z,43.20
2022-10-04T21:43:27.532Z,28.50
2022-10-04T21:45:55.825Z,64.97
2022-10-04T21:48:24.064Z,31.30
2022-10-04T21:50:53.319Z,39.50
2022-10-04T21:53:21.602Z,63.60
2022-10-04T21:55:49.777Z,25.50
2022-10-04T21:58:18.149Z,29.60
2022-10-04T22:00:47.541Z,28.87
2022-10-04T22:03:15.628Z,23.20
2022-10-04T22:05:43.687Z,19.90
2022-10-04T22:08:11.561Z,22.30
2022-10-04T22:10:39.972Z,16.50
2022-10-04T22:13:08.439Z,16.57
2022-10-04T22:15:36.781Z,18.70
2022-10-04T22:18:06.396Z,11.47
2022-10-04T22:20:34.921Z,14.97
2022-10-04T22:23:03.511Z,13.73
2022-10-04T22:25:31.583Z,17.57
2022-10-04T22:28:01.182Z,13.77
2022-10-04T22:30:31.135Z,12.80
2022-10-04T22:33:01.197Z,12.87
2022-10-04T22:35:34.587Z,12.83
2022-10-04T22:38:02.648Z,12.17
2022-10-04T22:40:30.795Z,10.80
2022-10-04T22:43:00.818Z,15.43
2022-10-04T22:45:33.356Z,14.30
2022-10-04T22:48:07.975Z,13.17
2022-10-04T22:50:38.411Z,12.10
2022-10-04T22:53:14.180Z,11.67
2022-10-04T22:55:42.247Z,12.67
2022-10-04T22:58:14.070Z,11.67
2022-10-04T23:00:43.333Z,14.83
2022-10-04T23:03:27.475Z,12.77
2022-10-04T23:05:56.792Z,11.97
2022-10-04T23:08:25.194Z,14.40
2022-10-04T23:10:55.556Z,16.30
2022-10-04T23:13:24.860Z,16.50
2022-10-04T23:15:53.853Z,14.60
2022-10-04T23:18:21.874Z,14.20
2022-10-04T23:20:55.581Z,14.73
2022-10-04T23:23:28.036Z,10.43
2022-10-04T23:25:56.708Z,15.07
2022-10-04T23:28:25.416Z,15.77
2022-10-04T23:31:02.677Z,20.20
2022-10-04T23:33:30.623Z,149.97
2022-10-04T23:35:58.954Z,63.80
2022-10-04T23:38:29.246Z,60.80
2022-10-04T23:40:57.200Z,32.17
2022-10-04T23:43:26.816Z,24.33
2022-10-04T23:45:56.744Z,25.80
2022-10-04T23:48:27.912Z,28.53
2022-10-04T23:50:59.675Z,36.87
2022-10-04T23:53:31.577Z,22.20
2022-10-04T23:56:03.670Z,19.57
2022-10-04T23:58:34.949Z,14.33
